Time;durP1;ratioP1;P1;durP2;ratioP2;P2;SDS_P1;SDS_P2;PMS_P1;PMS_P2;Temp;Humidity;BMP_temperature;BMP_pressure;BME280_temperature;BME280_humidity;BME280_pressure;Samples;Min_cycle;Max_cycle;Signal;HPM_P1;HPM_P2
2022/11/15 00:00:58;;;;;;;;;;;;;;;15.77;65.30;99135.34;2077201;28;20544;-46
2022/11/15 00:01:59;;;;;;;;;;;;;;;15.79;65.32;99137.81;2075716;28;19931;-46
2022/11/15 00:03:01;;;;;;;;;;;;;;;15.79;65.31;99138.66;2083380;28;19928;-48
2022/11/15 00:04:03;;;;;;;;;;;;;;;15.79;65.22;99135.16;2083374;28;19957;-48
2022/11/15 00:05:04;;;;;;;;;;;;;;;15.77;65.42;99140.69;2083712;28;19936;-46
2022/11/15 00:06:05;;;;;;;;;;;;;;;15.77;65.34;99131.84;2083168;28;20701;-46
2022/11/15 00:07:06;;;;;;;;;;;;;;;15.78;65.38;99137.00;2083247;28;20382;-45
2022/11/15 00:08:07;;;;;;;;;;;;;;;15.78;65.32;99137.00;2095002;28;20002;-47
2022/11/15 00:09:09;;;;;;;;;;;;;;;15.77;65.42;99131.84;2090627;28;19931;-46
2022/11/15 00:10:09;;;;;;;;;;;;;;;15.77;65.36;99132.66;2095904;28;19927;-45
2022/11/15 00:11:12;;;;;;;;;;;;;;;15.77;65.33;99132.66;2089119;28;19924;-47
2022/11/15 00:12:13;;;;;;;;;;;;;;;15.78;65.27;99122.78;2093708;28;19931;-45
2022/11/15 00:13:14;;;;;;;;;;;;;;;15.78;65.26;99123.63;2092604;28;19924;-46
2022/11/15 00:14:15;;;;;;;;;;;;;;;15.79;65.24;99124.44;2090707;28;20405;-47
2022/11/15 00:15:16;;;;;;;;;;;;;;;15.79;65.24;99132.47;2091087;28;20007;-46
2022/11/15 00:16:17;;;;;;;;;;;;;;;15.80;65.13;99128.81;2086963;28;19928;-47
2022/11/15 00:17:19;;;;;;;;;;;;;;;15.79;65.26;99119.09;2091054;28;20492;-47
2022/11/15 00:18:21;;;;;;;;;;;;;;;15.78;65.19;99120.94;2091603;28;19973;-47
2022/11/15 00:19:22;;;;;;;;;;;;;;;15.78;65.26;99130.81;2091690;28;20048;-46
2022/11/15 00:20:23;;;;;;;;;;;;;;;15.76;65.29;99130.97;2093746;28;19927;-46
2022/11/15 00:21:24;;;;;;;;;;;;;;;15.77;65.21;99132.66;2089687;28;19928;-47
2022/11/15 00:22:25;;;;;;;;;;;;;;;15.75;65.37;99134.66;2087979;28;19927;-46
2022/11/15 00:23:26;;;;;;;;;;;;;;;15.75;65.37;99126.63;2092529;28;19927;-47
2022/11/15 00:24:27;;;;;;;;;;;;;;;15.76;65.33;99130.97;2092066;28;20447;-47
2022/11/15 00:25:28;;;;;;;;;;;;;;;15.76;65.34;99130.97;2093396;28;19924;-47
2022/11/15 00:26:29;;;;;;;;;;;;;;;15.75;65.29;99126.63;2094774;28;19935;-46
2022/11/15 00:27:30;;;;;;;;;;;;;;;15.77;65.30;99127.31;2095317;28;19928;-47
2022/11/15 00:28:31;;;;;;;;;;;;;;;15.76;65.31;99124.78;2092923;28;19924;-47
2022/11/15 00:29:33;;;;;;;;;;;;;;;15.75;65.27;99126.63;2086859;28;20039;-46
2022/11/15 00:30:34;;;;;;;;;;;;;;;15.75;65.36;99121.28;2094579;28;19969;-45
2022/11/15 00:31:36;;;;;;;;;;;;;;;15.75;65.32;99121.28;2088060;28;20034;-45
2022/11/15 00:32:36;;;;;;;;;;;;;;;15.73;65.32;99117.94;2094243;28;19924;-46
2022/11/15 00:33:39;;;;;;;;;;;;;;;15.74;65.36;99119.63;2092493;28;19928;-47
2022/11/15 00:34:40;;;;;;;;;;;;;;;15.74;65.24;99118.78;2092655;28;19924;-48
2022/11/15 00:35:41;;;;;;;;;;;;;;;15.76;65.20;99120.28;2092204;28;20018;-45
2022/11/15 00:36:42;;;;;;;;;;;;;;;15.75;65.33;99117.78;2089913;28;19981;-46
2022/11/15 00:37:43;;;;;;;;;;;;;;;15.74;65.31;99130.34;2089866;28;19981;-47
2022/11/15 00:38:44;;;;;;;;;;;;;;;15.74;65.29;99116.09;2092429;28;19928;-48
2022/11/15 00:39:46;;;;;;;;;;;;;;;15.73;65.32;99117.94;2092273;28;19920;-48
2022/11/15 00:40:46;;;;;;;;;;;;;;;15.74;65.29;99121.44;2093505;28;20403;-45
2022/11/15 00:41:48;;;;;;;;;;;;;;;15.76;65.35;99119.44;2094223;28;19927;-46
2022/11/15 00:42:48;;;;;;;;;;;;;;;15.74;65.28;99119.63;2094208;28;19924;-45
2022/11/15 00:43:50;;;;;;;;;;;;;;;15.75;65.17;99120.47;2092630;28;19924;-45
2022/11/15 00:44:50;;;;;;;;;;;;;;;15.73;65.33;99117.94;2086339;28;19920;-50
2022/11/15 00:45:52;;;;;;;;;;;;;;;15.72;65.32;99116.28;2092782;28;19920;-48
2022/11/15 00:46:52;;;;;;;;;;;;;;;15.72;65.31;99120.81;2095563;28;19931;-47
2022/11/15 00:47:54;;;;;;;;;;;;;;;15.72;65.35;99120.81;2091678;28;20007;-47
2022/11/15 00:48:57;;;;;;;;;;;;;;;15.73;65.21;99117.94;2096209;28;19928;-47
2022/11/15 00:49:58;;;;;;;;;;;;;;;15.72;65.34;99115.47;2091178;28;19924;-47
2022/11/15 00:50:59;;;;;;;;;;;;;;;15.73;65.28;99123.31;2091546;28;19975;-47
2022/11/15 00:52:00;;;;;;;;;;;;;;;15.71;65.26;99114.63;2091971;28;19932;-47
2022/11/15 00:53:01;;;;;;;;;;;;;;;15.74;65.30;99116.09;2092059;28;20822;-47
2022/11/15 00:54:02;;;;;;;;;;;;;;;15.73;65.31;99119.78;2089225;28;19924;-46
2022/11/15 00:55:04;;;;;;;;;;;;;;;15.72;65.35;99121.63;2092510;28;21123;-46
2022/11/15 00:56:04;;;;;;;;;;;;;;;15.71;65.26;99113.78;2094910;28;19935;-45
2022/11/15 00:57:06;;;;;;;;;;;;;;;15.72;65.34;99118.13;2084103;28;19935;-46
2022/11/15 00:58:07;;;;;;;;;;;;;;;15.71;65.33;99119.97;2087268;28;19924;-45
2022/11/15 00:59:08;;;;;;;;;;;;;;;15.71;65.31;99121.81;2089949;28;19932;-46
2022/11/15 01:00:09;;;;;;;;;;;;;;;15.70;65.32;99120.97;2093819;28;19931;-45
2022/11/15 01:01:12;;;;;;;;;;;;;;;15.70;65.36;99117.47;2092838;28;20023;-48
2022/11/15 01:02:12;;;;;;;;;;;;;;;15.69;65.36;99119.31;2087786;28;19928;-45
2022/11/15 01:03:14;;;;;;;;;;;;;;;15.71;65.28;99121.81;2093788;28;19946;-47
2022/11/15 01:04:16;;;;;;;;;;;;;;;15.69;65.45;99121.16;2091819;28;20644;-47
2022/11/15 01:05:18;;;;;;;;;;;;;;;15.67;65.46;99123.97;2086783;28;19974;-46
2022/11/15 01:06:18;;;;;;;;;;;;;;;15.67;65.39;99121.28;2092008;28;20551;-48
2022/11/15 01:07:20;;;;;;;;;;;;;;;15.67;65.36;99123.13;2089892;28;19924;-48
2022/11/15 01:08:20;;;;;;;;;;;;;;;15.67;65.35;99129.31;2085058;28;19928;-48
2022/11/15 01:09:22;;;;;;;;;;;;;;;15.69;65.31;99129.19;2093569;28;19952;-50
2022/11/15 01:10:23;;;;;;;;;;;;;;;15.67;65.43;99129.31;2092003;28;19932;-47
2022/11/15 01:11:24;;;;;;;;;;;;;;;15.69;65.27;99129.19;2093075;28;19934;-48
2022/11/15 01:12:25;;;;;;;;;;;;;;;15.68;65.34;99128.31;2091844;28;19927;-47
2022/11/15 01:13:26;;;;;;;;;;;;;;;15.68;65.14;99130.13;2093568;28;19927;-46
2022/11/15 01:14:27;;;;;;;;;;;;;;;15.68;65.31;99128.31;2086079;28;19924;-48
2022/11/15 01:15:29;;;;;;;;;;;;;;;15.67;65.30;99118.63;2093920;28;20370;-46
2022/11/15 01:16:29;;;;;;;;;;;;;;;15.67;65.40;99123.97;2089506;28;19962;-50
2022/11/15 01:17:31;;;;;;;;;;;;;;;15.66;65.36;99119.63;2093223;28;20405;-45
2022/11/15 01:18:31;;;;;;;;;;;;;;;15.68;65.32;99124.78;2086332;28;19921;-49
2022/11/15 01:19:34;;;;;;;;;;;;;;;15.68;65.39;99120.31;2091447;28;19947;-48
2022/11/15 01:20:39;;;;;;;;;;;;;;;15.67;65.31;99112.44;2083620;28;19936;-47
2022/11/15 01:21:40;;;;;;;;;;;;;;;15.65;65.32;99102.72;2089598;28;19932;-46
2022/11/15 01:22:41;;;;;;;;;;;;;;;15.66;65.28;99103.59;2090433;28;19927;-50
2022/11/15 01:23:42;;;;;;;;;;;;;;;15.67;65.33;99101.75;2087025;28;20628;-45
2022/11/15 01:24:43;;;;;;;;;;;;;;;15.65;65.34;99100.06;2088494;28;19924;-47
2022/11/15 01:25:44;;;;;;;;;;;;;;;15.66;65.24;99106.25;2093609;28;19928;-50
2022/11/15 01:26:45;;;;;;;;;;;;;;;15.66;65.30;99106.25;2087309;28;19928;-48
2022/11/15 01:27:47;;;;;;;;;;;;;;;15.67;65.36;99099.91;2090381;28;19921;-45
2022/11/15 01:28:47;;;;;;;;;;;;;;;15.68;65.25;99111.41;2092832;28;19920;-47
2022/11/15 01:29:49;;;;;;;;;;;;;;;15.66;65.28;99106.25;2093774;28;19955;-45
2022/11/15 01:30:49;;;;;;;;;;;;;;;15.65;65.29;99097.38;2094920;28;19927;-48
2022/11/15 01:31:51;;;;;;;;;;;;;;;15.65;65.40;99096.56;2092299;28;19926;-45
2022/11/15 01:32:51;;;;;;;;;;;;;;;15.65;65.34;99101.91;2091741;28;19931;-46
2022/11/15 01:33:53;;;;;;;;;;;;;;;15.64;65.38;99093.06;2090480;28;19921;-45
2022/11/15 01:34:55;;;;;;;;;;;;;;;15.65;65.31;99094.72;2091415;28;19947;-46
2022/11/15 01:35:56;;;;;;;;;;;;;;;15.64;65.29;99098.41;2089056;28;20630;-47
2022/11/15 01:36:58;;;;;;;;;;;;;;;15.66;65.32;99095.56;2091590;28;19920;-45
2022/11/15 01:37:59;;;;;;;;;;;;;;;15.63;65.35;99102.09;2090543;28;19920;-46
2022/11/15 01:39:00;;;;;;;;;;;;;;;15.65;65.30;99107.25;2092078;28;19920;-46
2022/11/15 01:40:01;;;;;;;;;;;;;;;15.65;65.32;99104.56;2088748;28;19923;-46
2022/11/15 01:41:02;;;;;;;;;;;;;;;15.63;65.38;99099.41;2089686;28;19926;-45
2022/11/15 01:42:03;;;;;;;;;;;;;;;15.63;65.38;99101.25;2093545;28;19930;-48
2022/11/15 01:43:21;;;;;;;;;;;;;;;15.63;65.32;99101.25;2093139;28;20492;-44
2022/11/15 01:44:39;;;;;;;;;;;;;;;15.63;65.34;99102.09;2091146;28;19920;-46
2022/11/15 01:45:40;;;;;;;;;;;;;;;15.64;65.26;99109.09;2096050;28;19926;-47
2022/11/15 01:46:42;;;;;;;;;;;;;;;15.64;65.21;99102.91;2092659;28;19924;-46
2022/11/15 01:47:47;;;;;;;;;;;;;;;15.63;65.38;99104.75;2092881;28;20006;-47
2022/11/15 01:48:49;;;;;;;;;;;;;;;15.62;65.35;99099.56;2082408;28;20401;-47
2022/11/15 01:49:54;;;;;;;;;;;;;;;15.63;65.45;99098.59;2091412;28;20049;-48
2022/11/15 01:50:57;;;;;;;;;;;;;;;15.62;65.32;99095.06;2092422;28;20823;-46
2022/11/15 01:51:59;;;;;;;;;;;;;;;15.64;65.26;99097.56;2093320;28;19920;-47
2022/11/15 01:53:00;;;;;;;;;;;;;;;15.62;65.28;99096.91;2092301;28;19936;-47
2022/11/15 01:54:03;;;;;;;;;;;;;;;15.61;65.39;99104.09;2090583;28;21022;-46
2022/11/15 01:55:05;;;;;;;;;;;;;;;15.62;65.33;99097.72;2089940;28;19932;-48
2022/11/15 01:56:09;;;;;;;;;;;;;;;15.60;65.41;99102.44;2093931;28;19960;-45
2022/11/15 01:57:10;;;;;;;;;;;;;;;15.61;65.36;99103.28;2086961;28;19928;-47
2022/11/15 01:58:12;;;;;;;;;;;;;;;15.62;65.26;99096.91;2095670;28;19933;-45
2022/11/15 01:59:13;;;;;;;;;;;;;;;15.60;65.37;99096.22;2091026;28;19925;-46
2022/11/15 02:00:15;;;;;;;;;;;;;;;15.60;65.47;99098.91;2094533;28;19970;-48
2022/11/15 02:01:16;;;;;;;;;;;;;;;15.61;65.45;99103.28;2092176;28;19924;-47
2022/11/15 02:02:17;;;;;;;;;;;;;;;15.62;65.27;99096.91;2089146;28;20027;-48
2022/11/15 02:03:19;;;;;;;;;;;;;;;15.60;65.29;99102.44;2095685;28;19920;-46
2022/11/15 02:04:23;;;;;;;;;;;;;;;15.62;65.32;99089.72;2090664;28;19928;-46
2022/11/15 02:05:24;;;;;;;;;;;;;;;15.61;65.31;99088.06;2094766;28;19928;-48
2022/11/15 02:06:27;;;;;;;;;;;;;;;15.60;65.29;99085.53;2092434;28;20405;-49
2022/11/15 02:07:29;;;;;;;;;;;;;;;15.60;65.30;99082.88;2090750;28;19924;-46
2022/11/15 02:08:31;;;;;;;;;;;;;;;15.60;65.24;99083.72;2090524;28;19927;-48
2022/11/15 02:09:31;;;;;;;;;;;;;;;15.61;65.32;99087.22;2086432;28;20019;-46
2022/11/15 02:10:33;;;;;;;;;;;;;;;15.60;65.28;99086.41;2088744;28;19928;-48
2022/11/15 02:11:33;;;;;;;;;;;;;;;15.60;65.29;99074.84;2088593;28;20583;-45
2022/11/15 02:12:35;;;;;;;;;;;;;;;15.58;65.34;99072.34;2090720;28;19934;-44
2022/11/15 02:13:36;;;;;;;;;;;;;;;15.57;65.48;99076.06;2092956;28;21058;-45
2022/11/15 02:14:39;;;;;;;;;;;;;;;15.56;65.50;99074.38;2093779;28;20003;-47
2022/11/15 02:15:44;;;;;;;;;;;;;;;15.57;65.45;99069.84;2091721;28;19970;-48
2022/11/15 02:16:53;;;;;;;;;;;;;;;15.57;65.38;99069.84;2093477;28;19977;-46
2022/11/15 02:18:07;;;;;;;;;;;;;;;15.56;65.49;99069.03;2091751;28;19928;-48
2022/11/15 02:19:17;;;;;;;;;;;;;;;15.56;65.42;99068.19;2091470;28;20348;-46
2022/11/15 02:20:37;;;;;;;;;;;;;;;15.55;65.37;99067.34;2091750;28;19924;-46
2022/11/15 02:21:44;;;;;;;;;;;;;;;15.54;65.43;99071.03;2093161;28;19966;-48
2022/11/15 02:22:51;;;;;;;;;;;;;;;15.55;65.41;99069.22;2093178;28;19924;-45
2022/11/15 02:24:08;;;;;;;;;;;;;;;15.54;65.36;99068.34;2091653;28;19920;-47
2022/11/15 02:25:20;;;;;;;;;;;;;;;15.57;65.41;99064.50;2091528;28;19992;-47
2022/11/15 02:26:56;;;;;;;;;;;;;;;15.55;65.45;99067.34;2093153;28;19920;-45
2022/11/15 02:28:06;;;;;;;;;;;;;;;15.55;65.45;99063.88;2091710;28;19968;-50
2022/11/15 02:29:10;;;;;;;;;;;;;;;15.56;65.41;99060.16;2087325;28;19990;-48
2022/11/15 02:30:28;;;;;;;;;;;;;;;15.55;65.36;99061.19;2092772;28;19993;-46
2022/11/15 02:31:36;;;;;;;;;;;;;;;15.52;65.38;99064.22;2093789;28;20499;-46
2022/11/15 02:32:41;;;;;;;;;;;;;;;15.53;65.47;99063.19;2089664;28;19935;-46
2022/11/15 02:33:44;;;;;;;;;;;;;;;15.54;65.39;99062.16;2092480;28;19951;-45
2022/11/15 02:34:50;;;;;;;;;;;;;;;15.52;65.56;99061.53;2090765;28;19931;-45
2022/11/15 02:35:58;;;;;;;;;;;;;;;15.53;65.35;99057.84;2093478;28;19982;-47
2022/11/15 02:37:01;;;;;;;;;;;;;;;15.53;65.61;99060.53;2090041;28;19924;-46
2022/11/15 02:38:07;;;;;;;;;;;;;;;15.54;65.35;99067.53;2093765;28;19999;-45
2022/11/15 02:39:10;;;;;;;;;;;;;;;15.53;65.34;99064.03;2091422;28;19920;-46
2022/11/15 02:40:16;;;;;;;;;;;;;;;15.53;65.40;99066.69;2092607;28;19928;-47
2022/11/15 02:41:20;;;;;;;;;;;;;;;15.54;65.39;99064.84;2091296;28;19924;-45
2022/11/15 02:43:59;;;;;;;;;;;;;;;15.53;65.40;99055.16;2091729;28;20085;-45
2022/11/15 02:45:02;;;;;;;;;;;;;;;15.52;65.32;99051.66;2091590;28;19927;-53
2022/11/15 02:46:07;;;;;;;;;;;;;;;15.52;65.45;99050.84;2093903;28;19924;-45
2022/11/15 02:47:15;;;;;;;;;;;;;;;15.51;65.59;99049.16;2091441;28;20637;-45
2022/11/15 02:48:17;;;;;;;;;;;;;;;15.50;65.47;99042.97;2093707;28;19931;-47
2022/11/15 02:49:18;;;;;;;;;;;;;;;15.49;65.52;99037.78;2089927;28;20569;-48
2022/11/15 02:50:21;;;;;;;;;;;;;;;15.49;65.50;99035.13;2095130;28;19932;-47
2022/11/15 02:51:22;;;;;;;;;;;;;;;15.46;65.48;99040.81;2091353;28;20561;-45
2022/11/15 02:52:25;;;;;;;;;;;;;;;15.49;65.41;99035.13;2095692;28;19932;-47
2022/11/15 02:53:27;;;;;;;;;;;;;;;15.50;65.40;99032.28;2092973;28;19923;-45
2022/11/15 02:54:29;;;;;;;;;;;;;;;15.50;65.48;99026.94;2093777;28;20259;-46
2022/11/15 02:55:32;;;;;;;;;;;;;;;15.51;65.47;99027.78;2086931;28;19926;-46
2022/11/15 02:56:33;;;;;;;;;;;;;;;15.49;65.43;99024.44;2091987;28;20423;-46
2022/11/15 02:57:44;;;;;;;;;;;;;;;15.51;65.37;99027.78;2093430;28;19931;-45
2022/11/15 02:58:53;;;;;;;;;;;;;;;15.50;65.37;99024.28;2092534;28;19920;-46
2022/11/15 03:00:04;;;;;;;;;;;;;;;15.50;65.31;99028.78;2093314;28;19930;-47
2022/11/15 03:01:10;;;;;;;;;;;;;;;15.49;65.49;99017.28;2093624;28;19928;-46
2022/11/15 03:02:19;;;;;;;;;;;;;;;15.48;65.46;99020.09;2093489;28;19936;-48
2022/11/15 03:03:37;;;;;;;;;;;;;;;15.48;65.52;99014.75;2094200;28;21432;-45
2022/11/15 03:04:43;;;;;;;;;;;;;;;15.47;65.41;99005.91;2083885;28;20546;-47
2022/11/15 03:05:51;;;;;;;;;;;;;;;15.49;65.35;99003.03;2092519;28;19924;-48
2022/11/15 03:06:55;;;;;;;;;;;;;;;15.50;65.43;99002.06;2093621;28;19920;-45
2022/11/15 03:08:01;;;;;;;;;;;;;;;15.50;65.34;99000.22;2094102;28;19934;-46
2022/11/15 03:09:04;;;;;;;;;;;;;;;15.50;65.39;98999.38;2090017;28;19932;-45
2022/11/15 03:10:07;;;;;;;;;;;;;;;15.49;65.36;99005.72;2090820;28;19932;-48
2022/11/15 03:11:09;;;;;;;;;;;;;;;15.48;65.50;99004.06;2090162;28;19921;-45
2022/11/15 03:12:15;;;;;;;;;;;;;;;15.47;65.42;99013.94;2090553;28;19920;-47
2022/11/15 03:13:20;;;;;;;;;;;;;;;15.49;65.36;99013.75;2092696;28;20522;-46
2022/11/15 03:14:24;;;;;;;;;;;;;;;15.49;65.36;99019.09;2088470;28;19934;-47
2022/11/15 03:15:28;;;;;;;;;;;;;;;15.50;65.40;99015.41;2090478;28;19925;-46
2022/11/15 03:16:32;;;;;;;;;;;;;;;15.47;65.34;99013.94;2093183;28;19924;-46
2022/11/15 03:17:37;;;;;;;;;;;;;;;15.46;65.44;99014.94;2092223;28;19931;-48
2022/11/15 03:18:42;;;;;;;;;;;;;;;15.46;65.55;99011.41;2092781;28;20644;-45
2022/11/15 03:19:44;;;;;;;;;;;;;;;15.49;65.37;99016.41;2092355;28;19924;-47
2022/11/15 03:20:47;;;;;;;;;;;;;;;15.47;65.46;99005.91;2091507;28;20590;-45
2022/11/15 03:21:49;;;;;;;;;;;;;;;15.49;65.43;99013.75;2090906;28;19925;-46
2022/11/15 03:22:51;;;;;;;;;;;;;;;15.46;65.27;98998.91;2093030;28;19934;-46
2022/11/15 03:23:54;;;;;;;;;;;;;;;15.47;65.50;98997.06;2091603;28;20411;-47
2022/11/15 03:24:58;;;;;;;;;;;;;;;15.44;65.54;99006.25;2078925;28;22170;-45
2022/11/15 03:26:00;;;;;;;;;;;;;;;15.44;65.48;99000.09;2091612;28;19927;-47
2022/11/15 03:27:03;;;;;;;;;;;;;;;15.42;65.58;99009.09;2089111;28;19925;-48
2022/11/15 03:28:06;;;;;;;;;;;;;;;15.41;65.46;99006.59;2092413;28;19936;-46
2022/11/15 03:29:10;;;;;;;;;;;;;;;15.42;65.47;99014.44;2091648;28;19924;-45
2022/11/15 03:30:11;;;;;;;;;;;;;;;15.44;65.46;99010.78;2084228;28;20436;-46
2022/11/15 03:32:38;;;;;;;;;;;;;;;15.43;65.56;99017.94;2089997;28;20500;-45
2022/11/15 03:33:39;;;;;;;;;;;;;;;15.42;65.47;99011.75;2089546;28;19920;-48
2022/11/15 03:34:41;;;;;;;;;;;;;;;15.43;65.46;99015.25;2087884;28;19955;-46
2022/11/15 03:35:44;;;;;;;;;;;;;;;15.42;65.41;99013.59;2088488;28;19928;-47
2022/11/15 03:36:46;;;;;;;;;;;;;;;15.42;65.55;99013.59;2093041;28;19924;-45
2022/11/15 03:37:50;;;;;;;;;;;;;;;15.42;65.42;99013.59;2094554;28;20040;-48
2022/11/15 03:38:54;;;;;;;;;;;;;;;15.42;65.40;99006.41;2090429;28;19920;-46
2022/11/15 03:39:55;;;;;;;;;;;;;;;15.42;65.40;99014.44;2094817;28;19931;-47
2022/11/15 03:41:00;;;;;;;;;;;;;;;15.42;65.46;99010.94;2090210;28;20457;-47
2022/11/15 03:42:07;;;;;;;;;;;;;;;15.41;65.38;99020.81;2091954;28;19943;-48
2022/11/15 03:43:12;;;;;;;;;;;;;;;15.37;65.66;99011.44;2089327;28;20559;-49
2022/11/15 03:44:16;;;;;;;;;;;;;;;15.40;65.50;99016.44;2092085;28;19928;-46
2022/11/15 03:45:20;;;;;;;;;;;;;;;15.38;65.58;99015.81;2090434;28;19931;-45
2022/11/15 03:46:27;;;;;;;;;;;;;;;15.41;65.51;99028.00;2091373;28;19927;-46
2022/11/15 03:47:32;;;;;;;;;;;;;;;15.40;65.60;99016.44;2088556;28;19924;-48
2022/11/15 03:48:38;;;;;;;;;;;;;;;15.40;65.47;99032.47;2090374;28;19920;-47
2022/11/15 03:49:42;;;;;;;;;;;;;;;15.40;65.53;99032.47;2090195;28;19956;-46
2022/11/15 03:50:43;;;;;;;;;;;;;;;15.41;65.41;99039.50;2091900;28;19924;-49
2022/11/15 03:51:45;;;;;;;;;;;;;;;15.38;65.50;99031.84;2092973;28;20523;-46
2022/11/15 03:52:47;;;;;;;;;;;;;;;15.39;65.53;99035.34;2091762;28;19920;-48
2022/11/15 03:53:48;;;;;;;;;;;;;;;15.39;65.42;99030.81;2089974;28;19924;-48
2022/11/15 03:54:50;;;;;;;;;;;;;;;15.39;65.49;99019.31;2087439;28;19920;-46
2022/11/15 03:55:52;;;;;;;;;;;;;;;15.39;65.54;99016.63;2089378;28;19920;-46
2022/11/15 03:56:52;;;;;;;;;;;;;;;15.38;65.51;99012.31;2093516;28;19927;-48
2022/11/15 03:57:55;;;;;;;;;;;;;;;15.39;65.44;99012.13;2089753;28;19954;-46
2022/11/15 03:58:56;;;;;;;;;;;;;;;15.38;65.55;99018.47;2091264;28;19929;-48
2022/11/15 03:59:57;;;;;;;;;;;;;;;15.36;65.57;99023.16;2094274;28;20077;-46
2022/11/15 04:00:59;;;;;;;;;;;;;;;15.38;65.60;99028.34;2092863;28;20558;-48
2022/11/15 04:02:00;;;;;;;;;;;;;;;15.38;65.56;99028.34;2091476;28;20474;-48
2022/11/15 04:03:01;;;;;;;;;;;;;;;15.39;65.56;99019.31;2092159;28;19920;-46
2022/11/15 04:04:04;;;;;;;;;;;;;;;15.37;65.55;99019.47;2091737;28;20439;-47
2022/11/15 04:05:05;;;;;;;;;;;;;;;15.38;65.50;99013.13;2092030;28;19921;-46
2022/11/15 04:06:07;;;;;;;;;;;;;;;15.38;65.40;99007.78;2091061;28;19924;-48
2022/11/15 04:07:07;;;;;;;;;;;;;;;15.39;65.39;99009.44;2091344;28;19924;-47
2022/11/15 04:08:09;;;;;;;;;;;;;;;15.37;65.49;99002.59;2091736;28;19924;-47
2022/11/15 04:09:09;;;;;;;;;;;;;;;15.38;65.57;99012.31;2086404;28;20543;-47
2022/11/15 04:10:11;;;;;;;;;;;;;;;15.34;65.45;99001.09;2091886;28;19920;-50
2022/11/15 04:11:12;;;;;;;;;;;;;;;15.34;65.62;99009.13;2089475;28;19929;-46
2022/11/15 04:12:30;;;;;;;;;;;;;;;15.34;65.59;99009.13;2091372;28;20027;-47
2022/11/15 04:13:31;;;;;;;;;;;;;;;15.35;65.62;99010.81;2088496;28;19932;-49
2022/11/15 04:14:32;;;;;;;;;;;;;;;15.34;65.49;99005.63;2090252;28;19920;-47
2022/11/15 04:15:34;;;;;;;;;;;;;;;15.33;65.59;99004.78;2090718;28;19924;-46
2022/11/15 04:16:34;;;;;;;;;;;;;;;15.33;65.60;99006.63;2087242;28;19929;-49
2022/11/15 04:17:37;;;;;;;;;;;;;;;15.35;65.63;99002.78;2089266;28;20306;-46
2022/11/15 04:18:37;;;;;;;;;;;;;;;15.35;65.54;99001.94;2090215;28;19929;-48
2022/11/15 04:24:57;;;;;;;;;;;;;;;15.32;65.56;99000.47;2089921;28;20520;-46
2022/11/15 04:25:58;;;;;;;;;;;;;;;15.33;65.50;99001.28;2091702;28;19951;-46
2022/11/15 04:27:00;;;;;;;;;;;;;;;15.33;65.56;98987.94;2091777;28;19920;-47
2022/11/15 04:28:01;;;;;;;;;;;;;;;15.34;65.40;98982.41;2089295;28;19928;-46
2022/11/15 04:30:21;;;;;;;;;;;;;;;15.33;65.60;98971.91;2092971;28;19928;-48
2022/11/15 04:31:22;;;;;;;;;;;;;;;15.31;65.57;98972.06;2090969;28;19931;-49
2022/11/15 04:32:23;;;;;;;;;;;;;;;15.31;65.49;98969.38;2092026;28;20007;-47
2022/11/15 04:33:25;;;;;;;;;;;;;;;15.33;65.60;98977.25;2093265;28;19959;-47
2022/11/15 04:34:26;;;;;;;;;;;;;;;15.33;65.51;98972.72;2091041;28;19920;-46
2022/11/15 04:35:29;;;;;;;;;;;;;;;15.31;65.52;98977.41;2092243;28;20636;-46
2022/11/15 04:37:49;;;;;;;;;;;;;;;15.31;65.55;98981.91;2092750;28;20623;-46
2022/11/15 04:38:50;;;;;;;;;;;;;;;15.32;65.57;98975.56;2089501;28;19920;-49
2022/11/15 04:39:51;;;;;;;;;;;;;;;15.31;65.65;98987.25;2089085;28;19924;-49
2022/11/15 04:40:53;;;;;;;;;;;;;;;15.29;65.75;98976.72;2087424;28;19967;-49
2022/11/15 04:41:53;;;;;;;;;;;;;;;15.32;65.52;98976.41;2094192;28;20634;-49
2022/11/15 04:42:55;;;;;;;;;;;;;;;15.31;65.59;98965.88;2088468;28;19931;-49
2022/11/15 04:43:55;;;;;;;;;;;;;;;15.30;65.45;98965.06;2086818;28;19924;-48
2022/11/15 04:44:57;;;;;;;;;;;;;;;15.31;65.56;98966.72;2091532;28;20008;-48
2022/11/15 04:45:57;;;;;;;;;;;;;;;15.31;65.48;98964.03;2088371;28;19924;-45
2022/11/15 04:46:59;;;;;;;;;;;;;;;15.31;65.45;98964.03;2090989;28;20420;-49
2022/11/15 04:47:59;;;;;;;;;;;;;;;15.30;65.60;98961.56;2086937;28;19942;-50
2022/11/15 04:49:01;;;;;;;;;;;;;;;15.31;65.49;98961.38;2093591;28;20390;-48
2022/11/15 04:50:02;;;;;;;;;;;;;;;15.30;65.54;98965.06;2093967;28;19924;-45
2022/11/15 04:51:05;;;;;;;;;;;;;;;15.30;65.56;98967.72;2091342;28;20005;-47
2022/11/15 04:52:05;;;;;;;;;;;;;;;15.30;65.58;98967.72;2092554;28;19943;-46
2022/11/15 04:53:07;;;;;;;;;;;;;;;15.30;65.56;98969.56;2094330;28;19960;-47
2022/11/15 04:54:07;;;;;;;;;;;;;;;15.30;65.53;98972.25;2089971;28;20908;-46
2022/11/15 04:55:09;;;;;;;;;;;;;;;15.29;65.60;98968.72;2090527;28;19934;-48
2022/11/15 04:56:10;;;;;;;;;;;;;;;15.31;65.65;98972.06;2090697;28;19924;-45
2022/11/15 04:57:11;;;;;;;;;;;;;;;15.30;65.50;98972.25;2095686;28;19928;-48
2022/11/15 04:58:12;;;;;;;;;;;;;;;15.28;65.46;98975.09;2092472;28;20378;-48
2022/11/15 04:59:13;;;;;;;;;;;;;;;15.29;65.60;98978.59;2090501;28;19924;-47
2022/11/15 05:00:15;;;;;;;;;;;;;;;15.29;65.61;98987.41;2089901;28;20333;-48
2022/11/15 05:01:17;;;;;;;;;;;;;;;15.31;65.40;98993.44;2087859;28;20007;-45
2022/11/15 05:02:17;;;;;;;;;;;;;;;15.28;65.48;98993.78;2094090;28;19928;-46
2022/11/15 05:04:38;;;;;;;;;;;;;;;15.30;65.47;98996.31;2091540;28;20510;-50
2022/11/15 05:05:39;;;;;;;;;;;;;;;15.28;65.47;98987.63;2094754;28;19931;-48
2022/11/15 05:06:41;;;;;;;;;;;;;;;15.27;65.55;98977.94;2092524;28;20312;-49
2022/11/15 05:07:42;;;;;;;;;;;;;;;15.26;65.60;98977.09;2092893;28;19920;-48
2022/11/15 05:08:44;;;;;;;;;;;;;;;15.26;65.68;98978.94;2091777;28;20330;-47
2022/11/15 05:09:44;;;;;;;;;;;;;;;15.26;65.53;98973.59;2095248;28;19931;-47
2022/11/15 05:10:46;;;;;;;;;;;;;;;15.27;65.48;98978.78;2093506;28;19924;-47
2022/11/15 05:11:46;;;;;;;;;;;;;;;15.30;65.42;98986.44;2091965;28;19924;-45
2022/11/15 05:12:48;;;;;;;;;;;;;;;15.29;65.52;98982.09;2091657;28;19978;-48
2022/11/15 05:13:49;;;;;;;;;;;;;;;15.28;65.37;98976.94;2087826;28;20555;-49
2022/11/15 05:14:50;;;;;;;;;;;;;;;15.29;65.54;98978.59;2090428;28;19921;-49
2022/11/15 05:15:51;;;;;;;;;;;;;;;15.29;65.46;98982.09;2088197;28;19931;-45
2022/11/15 05:16:52;;;;;;;;;;;;;;;15.26;65.45;98982.44;2090132;28;20579;-47
2022/11/15 05:17:57;;;;;;;;;;;;;;;15.26;65.60;98977.09;2096521;28;19934;-48
2022/11/15 05:18:58;;;;;;;;;;;;;;;15.25;65.55;98980.78;2090641;28;19924;-48
2022/11/15 05:20:00;;;;;;;;;;;;;;;15.25;65.56;98986.13;2092291;28;19927;-50
2022/11/15 05:21:03;;;;;;;;;;;;;;;15.23;65.48;98977.44;2079621;28;20891;-48
2022/11/15 05:22:05;;;;;;;;;;;;;;;15.24;65.50;98984.47;2090216;28;19931;-52
2022/11/15 05:23:06;;;;;;;;;;;;;;;15.25;65.63;98985.28;2089272;28;19924;-46
2022/11/15 05:24:10;;;;;;;;;;;;;;;15.26;65.58;98978.94;2088763;28;19924;-47
2022/11/15 05:25:10;;;;;;;;;;;;;;;15.27;65.47;98972.59;2091322;28;19924;-47
2022/11/15 05:26:12;;;;;;;;;;;;;;;15.26;65.55;98978.94;2091087;28;19934;-47
2022/11/15 05:27:13;;;;;;;;;;;;;;;15.26;65.53;98973.59;2089533;28;19929;-49
2022/11/15 05:28:14;;;;;;;;;;;;;;;15.26;65.47;98971.75;2087174;28;20694;-51
2022/11/15 05:29:15;;;;;;;;;;;;;;;15.27;65.41;98981.44;2092758;28;19928;-48
2022/11/15 05:30:17;;;;;;;;;;;;;;;15.25;65.45;98975.44;2090732;28;20396;-47
2022/11/15 05:31:17;;;;;;;;;;;;;;;15.24;65.61;98981.78;2092104;28;20358;-45
2022/11/15 05:32:19;;;;;;;;;;;;;;;15.24;65.51;98978.25;2091393;28;19946;-46
2022/11/15 05:33:19;;;;;;;;;;;;;;;15.22;65.48;98978.44;2088972;28;20576;-45
2022/11/15 05:34:22;;;;;;;;;;;;;;;15.24;65.52;98979.13;2090478;28;19924;-45
2022/11/15 05:35:29;;;;;;;;;;;;;;;15.24;65.66;98978.25;2087040;28;20395;-47
2022/11/15 05:36:34;;;;;;;;;;;;;;;15.23;65.50;98977.44;2090194;28;19951;-46
2022/11/15 05:37:36;;;;;;;;;;;;;;;15.23;65.47;98980.09;2094175;28;19920;-45
2022/11/15 05:38:38;;;;;;;;;;;;;;;15.25;65.45;98980.78;2092723;28;19928;-46
2022/11/15 05:39:39;;;;;;;;;;;;;;;15.23;65.57;98974.75;2092135;28;19920;-44